createdAt,value
2018-03-11T00:00:11.923Z,995.02
2018-03-11T00:01:13.334Z,995.06
2018-03-11T00:02:14.726Z,995.09
2018-03-11T00:03:16.132Z,995.07
2018-03-11T00:04:17.485Z,995.05
2018-03-11T00:05:18.873Z,995.07
2018-03-11T00:06:20.259Z,995.03
2018-03-11T00:07:21.644Z,995.03
2018-03-11T00:08:23.029Z,995.00
2018-03-11T00:09:24.393Z,995.03
2018-03-11T00:10:25.772Z,995.01
2018-03-11T00:11:27.258Z,995.02
2018-03-11T00:12:28.641Z,995.08
2018-03-11T00:13:30.016Z,995.05
2018-03-11T00:14:31.399Z,995.07
2018-03-11T00:15:32.777Z,995.08
2018-03-11T00:16:34.157Z,995.06
2018-03-11T00:17:35.540Z,995.08
2018-03-11T00:18:36.911Z,995.09
2018-03-11T00:19:38.286Z,995.11
2018-03-11T00:20:39.661Z,995.08
2018-03-11T00:21:41.039Z,995.09
2018-03-11T00:22:42.427Z,995.08
2018-03-11T00:23:43.810Z,995.11
2018-03-11T00:24:45.172Z,995.10
2018-03-11T00:25:46.560Z,995.13
2018-03-11T00:26:47.941Z,995.13
2018-03-11T00:27:49.321Z,995.12
2018-03-11T00:28:50.698Z,995.11
2018-03-11T00:29:52.087Z,995.14
2018-03-11T00:30:53.481Z,995.13
2018-03-11T00:31:54.859Z,995.14
2018-03-11T00:32:56.245Z,995.14
2018-03-11T00:33:57.638Z,995.09
2018-03-11T00:34:59.010Z,995.05
2018-03-11T00:36:00.401Z,995.08
2018-03-11T00:37:01.778Z,995.08
2018-03-11T00:38:03.152Z,995.02
2018-03-11T00:39:04.529Z,995.03
2018-03-11T00:40:05.946Z,995.01
2018-03-11T00:41:07.294Z,994.99
2018-03-11T00:42:08.675Z,994.98
2018-03-11T00:43:10.081Z,995.01
2018-03-11T00:44:11.447Z,994.97
2018-03-11T00:45:13.627Z,994.96
2018-03-11T00:46:15.020Z,994.96
2018-03-11T00:47:16.411Z,994.94
2018-03-11T00:48:17.780Z,994.91
2018-03-11T00:49:19.170Z,994.89
2018-03-11T00:50:21.333Z,994.83
2018-03-11T00:51:22.711Z,994.87
2018-03-11T00:52:24.102Z,994.88
2018-03-11T00:53:25.480Z,994.82
2018-03-11T00:54:26.885Z,994.82
2018-03-11T00:55:28.252Z,994.81
2018-03-11T00:56:29.620Z,994.80
2018-03-11T00:57:31.006Z,994.74
2018-03-11T00:58:32.393Z,994.76
2018-03-11T00:59:33.768Z,994.72
2018-03-11T01:00:35.150Z,994.68
2018-03-11T01:01:36.525Z,994.68
2018-03-11T01:02:37.903Z,994.65
2018-03-11T01:03:39.277Z,994.64
2018-03-11T01:04:40.639Z,994.64
2018-03-11T01:05:42.018Z,994.67
2018-03-11T01:06:43.397Z,994.59
2018-03-11T01:07:44.784Z,994.58
2018-03-11T01:08:47.045Z,994.57
2018-03-11T01:09:48.423Z,994.59
2018-03-11T01:10:49.818Z,994.59
2018-03-11T01:11:51.197Z,994.56
2018-03-11T01:12:52.573Z,994.61
2018-03-11T01:13:53.954Z,994.62
2018-03-11T01:14:55.334Z,994.56
2018-03-11T01:15:56.714Z,994.58
2018-03-11T01:16:58.090Z,994.57
2018-03-11T01:17:59.473Z,994.57
2018-03-11T01:19:01.612Z,994.55
2018-03-11T01:20:02.990Z,994.54
2018-03-11T01:21:04.334Z,994.56
2018-03-11T01:22:05.702Z,994.55
2018-03-11T01:23:07.075Z,994.52
2018-03-11T01:24:08.453Z,994.52
2018-03-11T01:25:09.832Z,994.51
2018-03-11T01:26:11.198Z,994.54
2018-03-11T01:27:12.579Z,994.60
2018-03-11T01:28:13.960Z,994.56
2018-03-11T01:29:15.332Z,994.55
2018-03-11T01:30:16.717Z,994.58
2018-03-11T01:31:18.084Z,994.58
2018-03-11T01:32:19.455Z,994.58
2018-03-11T01:33:20.847Z,994.54
2018-03-11T01:34:22.226Z,994.51
2018-03-11T01:35:23.611Z,994.50
2018-03-11T01:36:24.988Z,994.46
2018-03-11T01:37:26.359Z,994.48
2018-03-11T01:38:27.737Z,994.49
2018-03-11T01:39:29.119Z,994.46
2018-03-11T01:40:30.487Z,994.49
2018-03-11T01:41:31.853Z,994.50
2018-03-11T01:42:33.239Z,994.46
2018-03-11T01:43:34.620Z,994.42
2018-03-11T01:44:36.000Z,994.43
2018-03-11T01:45:37.382Z,994.42
2018-03-11T01:46:38.754Z,994.44
2018-03-11T01:47:40.144Z,994.42
2018-03-11T01:48:41.533Z,994.44
2018-03-11T01:49:42.891Z,994.46
2018-03-11T01:50:44.270Z,994.47
2018-03-11T01:51:45.643Z,994.49
2018-03-11T01:52:47.028Z,994.43
2018-03-11T01:53:48.404Z,994.44
2018-03-11T01:54:49.768Z,994.42
2018-03-11T01:55:51.148Z,994.44
2018-03-11T01:56:53.177Z,994.46
2018-03-11T01:57:54.551Z,994.47
2018-03-11T01:58:55.932Z,994.50
2018-03-11T01:59:57.320Z,994.48
2018-03-11T02:00:58.703Z,994.54
2018-03-11T02:02:00.057Z,994.50
2018-03-11T02:03:01.443Z,994.54
2018-03-11T02:04:02.819Z,994.53
2018-03-11T02:05:04.203Z,994.53
2018-03-11T02:06:05.589Z,994.52
2018-03-11T02:07:06.961Z,994.55
2018-03-11T02:08:08.336Z,994.55
2018-03-11T02:09:09.714Z,994.56
2018-03-11T02:10:11.101Z,994.55
2018-03-11T02:11:12.484Z,994.56
2018-03-11T02:12:13.859Z,994.59
2018-03-11T02:13:15.226Z,994.55
2018-03-11T02:14:16.602Z,994.56
2018-03-11T02:15:17.982Z,994.57
2018-03-11T02:16:19.358Z,994.51
2018-03-11T02:17:20.724Z,994.55
2018-03-11T02:18:22.120Z,994.52
2018-03-11T02:19:23.500Z,994.52
2018-03-11T02:20:24.872Z,994.51
2018-03-11T02:21:26.252Z,994.55
2018-03-11T02:22:28.408Z,994.47
2018-03-11T02:23:31.321Z,994.43
2018-03-11T02:24:32.702Z,994.41
2018-03-11T02:25:34.084Z,994.45
2018-03-11T02:26:35.473Z,994.44
2018-03-11T02:27:36.839Z,994.43
2018-03-11T02:28:38.227Z,994.42
2018-03-11T02:29:40.419Z,994.44
2018-03-11T02:30:41.799Z,994.39
2018-03-11T02:31:43.181Z,994.39
2018-03-11T02:32:44.574Z,994.36
2018-03-11T02:33:45.943Z,994.35
2018-03-11T02:34:47.324Z,994.30
2018-03-11T02:35:48.696Z,994.32
2018-03-11T02:36:50.076Z,994.33
2018-03-11T02:37:51.449Z,994.31
2018-03-11T02:38:52.840Z,994.34
2018-03-11T02:39:54.215Z,994.28
2018-03-11T02:40:55.594Z,994.34
2018-03-11T02:41:56.972Z,994.31
2018-03-11T02:42:58.361Z,994.29
2018-03-11T02:43:59.732Z,994.25
2018-03-11T02:45:01.108Z,994.28
2018-03-11T02:46:02.491Z,994.27
2018-03-11T02:47:03.896Z,994.28
2018-03-11T02:48:05.267Z,994.29
2018-03-11T02:49:06.715Z,994.25
2018-03-11T02:50:08.042Z,994.26
2018-03-11T02:51:09.412Z,994.23
2018-03-11T02:52:10.788Z,994.26
2018-03-11T02:53:12.173Z,994.23
2018-03-11T02:54:13.554Z,994.21
2018-03-11T02:55:14.925Z,994.21
2018-03-11T02:56:16.307Z,994.21
2018-03-11T02:57:17.677Z,994.20
2018-03-11T02:58:19.054Z,994.21
2018-03-11T02:59:20.434Z,994.20
2018-03-11T03:00:21.803Z,994.24
2018-03-11T03:01:23.186Z,994.20
2018-03-11T03:02:24.555Z,994.21
2018-03-11T03:03:25.937Z,994.17
2018-03-11T03:04:27.313Z,994.20
2018-03-11T03:05:28.689Z,994.20
2018-03-11T03:06:30.066Z,994.20
2018-03-11T03:07:32.152Z,994.19
2018-03-11T03:08:33.528Z,994.17
2018-03-11T03:09:34.906Z,994.17
2018-03-11T03:10:36.289Z,994.17
2018-03-11T03:11:37.663Z,994.18
2018-03-11T03:12:39.040Z,994.20
2018-03-11T03:13:40.426Z,994.19
2018-03-11T03:14:41.800Z,994.22
2018-03-11T03:15:43.174Z,994.24
2018-03-11T03:16:44.547Z,994.28
2018-03-11T03:17:45.922Z,994.26
2018-03-11T03:18:47.308Z,994.27
2018-03-11T03:19:48.681Z,994.26
2018-03-11T03:20:50.055Z,994.25
2018-03-11T03:21:51.427Z,994.28
2018-03-11T03:22:52.798Z,994.25
2018-03-11T03:23:54.180Z,994.22
2018-03-11T03:24:55.555Z,994.26
2018-03-11T03:25:56.932Z,994.25
2018-03-11T03:26:58.308Z,994.21
2018-03-11T03:27:59.685Z,994.26
2018-03-11T03:29:01.707Z,994.24
2018-03-11T03:30:03.105Z,994.22
2018-03-11T03:31:04.472Z,994.26
2018-03-11T03:32:05.855Z,994.27
2018-03-11T03:33:07.218Z,994.28
2018-03-11T03:34:08.597Z,994.28
2018-03-11T03:35:09.980Z,994.28
2018-03-11T03:36:11.349Z,994.27
2018-03-11T03:37:12.731Z,994.30
2018-03-11T03:38:14.111Z,994.29
2018-03-11T03:39:15.481Z,994.32
2018-03-11T03:40:16.856Z,994.34
2018-03-11T03:41:18.226Z,994.31
2018-03-11T03:42:19.610Z,994.29
2018-03-11T03:43:20.992Z,994.25
2018-03-11T03:44:22.368Z,994.24
2018-03-11T03:45:23.746Z,994.21
2018-03-11T03:46:25.113Z,994.20
2018-03-11T03:47:26.513Z,994.18
2018-03-11T03:48:27.886Z,994.15
2018-03-11T03:49:29.766Z,994.12
2018-03-11T03:50:30.601Z,994.09
2018-03-11T03:51:31.967Z,994.09
2018-03-11T03:52:33.351Z,994.04
2018-03-11T03:53:34.723Z,994.05
2018-03-11T03:54:36.101Z,994.04
2018-03-11T03:55:37.481Z,993.99
2018-03-11T03:56:38.863Z,994.03
2018-03-11T03:57:40.237Z,993.99
2018-03-11T03:58:41.619Z,993.97
2018-03-11T03:59:42.988Z,993.95
2018-03-11T04:00:44.367Z,994.01
2018-03-11T04:01:45.743Z,993.98
2018-03-11T04:02:47.123Z,993.95
2018-03-11T04:03:49.178Z,993.97
2018-03-11T04:04:50.561Z,993.96
2018-03-11T04:05:51.942Z,993.96
2018-03-11T04:06:53.310Z,993.96
2018-03-11T04:07:54.705Z,994.00
2018-03-11T04:08:56.076Z,993.99
2018-03-11T04:09:57.458Z,993.98
2018-03-11T04:10:58.826Z,993.99
2018-03-11T04:12:00.213Z,993.99
2018-03-11T04:13:01.589Z,994.01
2018-03-11T04:14:02.968Z,994.00
2018-03-11T04:15:04.367Z,994.03
2018-03-11T04:16:05.729Z,994.01
2018-03-11T04:17:07.092Z,994.02
2018-03-11T04:18:08.494Z,994.01
2018-03-11T04:19:09.865Z,994.00
2018-03-11T04:20:11.244Z,994.01
2018-03-11T04:21:13.329Z,993.96
2018-03-11T04:22:14.695Z,993.98
2018-03-11T04:23:16.065Z,994.03
2018-03-11T04:24:17.453Z,994.05
2018-03-11T04:25:18.829Z,994.07
2018-03-11T04:26:20.205Z,994.12
2018-03-11T04:27:21.583Z,994.14
2018-03-11T04:28:22.963Z,994.14
2018-03-11T04:29:24.338Z,994.19
2018-03-11T04:30:25.722Z,994.19
2018-03-11T04:31:27.097Z,994.18
2018-03-11T04:32:28.471Z,994.14
2018-03-11T04:33:29.842Z,994.20
2018-03-11T04:34:31.214Z,994.17
2018-03-11T04:35:32.593Z,994.22
2018-03-11T04:36:33.970Z,994.15
2018-03-11T04:37:35.346Z,994.19
2018-03-11T04:38:36.718Z,994.19
2018-03-11T04:39:38.082Z,994.19
2018-03-11T04:40:39.470Z,994.18
2018-03-11T04:41:40.840Z,994.18
2018-03-11T04:42:42.214Z,994.19
2018-03-11T04:43:43.613Z,994.21
2018-03-11T04:44:44.977Z,994.20
2018-03-11T04:45:46.365Z,994.18
2018-03-11T04:46:47.736Z,994.20
2018-03-11T04:47:49.110Z,994.25
2018-03-11T04:48:50.489Z,994.25
2018-03-11T04:49:51.860Z,994.24
2018-03-11T04:50:53.243Z,994.25
2018-03-11T04:51:54.615Z,994.24
2018-03-11T04:52:55.993Z,994.27
2018-03-11T04:53:57.368Z,994.23
2018-03-11T04:54:59.403Z,994.24
2018-03-11T04:56:00.797Z,994.21
2018-03-11T04:57:02.151Z,994.25
2018-03-11T04:58:03.527Z,994.20
2018-03-11T04:59:04.914Z,994.23
2018-03-11T05:00:06.290Z,994.16
2018-03-11T05:01:07.665Z,994.10
2018-03-11T05:02:09.043Z,994.11
2018-03-11T05:03:10.416Z,994.09
2018-03-11T05:04:11.783Z,994.12
2018-03-11T05:05:13.170Z,994.08
2018-03-11T05:06:15.406Z,994.08
2018-03-11T05:07:16.782Z,994.10
2018-03-11T05:08:18.158Z,994.12
2018-03-11T05:09:19.569Z,994.13
2018-03-11T05:10:20.917Z,994.12
2018-03-11T05:11:22.288Z,994.14
2018-03-11T05:12:23.677Z,994.18
2018-03-11T05:13:25.051Z,994.12
2018-03-11T05:14:26.426Z,994.14
2018-03-11T05:15:27.812Z,994.12
2018-03-11T05:16:29.185Z,994.14
2018-03-11T05:17:30.569Z,994.15
2018-03-11T05:18:31.953Z,994.09
2018-03-11T05:19:33.323Z,994.10
2018-03-11T05:20:34.693Z,994.10
2018-03-11T05:21:36.066Z,994.08
2018-03-11T05:22:37.438Z,994.11
2018-03-11T05:23:38.809Z,994.09
2018-03-11T05:24:40.196Z,994.10
2018-03-11T05:25:41.560Z,994.11
2018-03-11T05:26:42.950Z,994.05
2018-03-11T05:27:44.316Z,994.04
2018-03-11T05:28:45.693Z,994.05
2018-03-11T05:29:47.062Z,993.99
2018-03-11T05:30:48.434Z,994.00
2018-03-11T05:31:49.820Z,994.01
2018-03-11T05:32:51.193Z,993.97
2018-03-11T05:33:52.572Z,994.00
2018-03-11T05:34:54.908Z,993.94
2018-03-11T05:35:56.293Z,993.96
2018-03-11T05:36:57.674Z,993.94
2018-03-11T05:37:59.784Z,993.94
2018-03-11T05:39:00.379Z,993.90
2018-03-11T05:40:01.753Z,993.91
2018-03-11T05:41:03.157Z,993.92
2018-03-11T05:42:04.503Z,993.91
2018-03-11T05:43:05.898Z,993.94
2018-03-11T05:44:07.273Z,993.93
2018-03-11T05:45:08.654Z,993.92
2018-03-11T05:46:10.824Z,993.92
2018-03-11T05:47:12.201Z,993.99
2018-03-11T05:48:13.587Z,994.00
2018-03-11T05:49:14.977Z,994.00
2018-03-11T05:50:16.390Z,993.96
2018-03-11T05:51:17.777Z,993.96
2018-03-11T05:52:19.166Z,994.00
2018-03-11T05:53:20.540Z,993.98
2018-03-11T05:54:21.925Z,993.94
2018-03-11T05:55:23.314Z,993.97
2018-03-11T05:56:24.693Z,993.97
2018-03-11T05:57:26.084Z,993.99
2018-03-11T05:58:27.476Z,993.98
2018-03-11T05:59:28.854Z,993.96
2018-03-11T06:00:30.228Z,993.97
2018-03-11T06:01:31.606Z,993.93
2018-03-11T06:02:32.999Z,993.96
2018-03-11T06:03:34.383Z,993.98
2018-03-11T06:04:35.767Z,993.94
2018-03-11T06:05:37.093Z,993.98
2018-03-11T06:06:39.152Z,993.93
2018-03-11T06:07:40.539Z,993.97
2018-03-11T06:08:41.928Z,993.99
2018-03-11T06:09:43.317Z,993.92
2018-03-11T06:10:44.703Z,994.01
2018-03-11T06:11:46.078Z,994.01
2018-03-11T06:12:47.486Z,994.02
2018-03-11T06:13:48.875Z,993.98
2018-03-11T06:14:50.256Z,994.00
2018-03-11T06:15:51.651Z,994.00
2018-03-11T06:16:53.083Z,994.03
2018-03-11T06:17:54.408Z,994.02
2018-03-11T06:18:55.796Z,994.03
2018-03-11T06:19:57.198Z,994.03
2018-03-11T06:20:58.575Z,994.05
2018-03-11T06:21:59.960Z,994.09
2018-03-11T06:23:01.358Z,994.11
2018-03-11T06:24:02.737Z,994.11
2018-03-11T06:25:04.125Z,994.11
2018-03-11T06:26:05.524Z,994.08
2018-03-11T06:27:06.908Z,994.14
2018-03-11T06:28:08.287Z,994.06
2018-03-11T06:29:09.678Z,994.09
2018-03-11T06:30:11.074Z,994.08
2018-03-11T06:31:12.464Z,994.10
2018-03-11T06:32:13.846Z,994.06
2018-03-11T06:33:15.217Z,994.01
2018-03-11T06:34:16.602Z,994.04
2018-03-11T06:35:17.990Z,994.05
2018-03-11T06:36:19.380Z,994.04
2018-03-11T06:37:20.775Z,994.07
2018-03-11T06:38:22.157Z,994.03
2018-03-11T06:39:23.533Z,994.07
2018-03-11T06:40:24.912Z,994.05
2018-03-11T06:41:26.301Z,994.04
2018-03-11T06:42:27.688Z,994.06
2018-03-11T06:43:29.059Z,994.04
2018-03-11T06:44:30.451Z,994.04
2018-03-11T06:45:31.833Z,994.09
2018-03-11T06:46:33.219Z,994.16
2018-03-11T06:47:34.603Z,994.14
2018-03-11T06:48:36.003Z,994.16
2018-03-11T06:49:37.377Z,994.10
2018-03-11T06:50:38.775Z,994.07
2018-03-11T06:51:40.163Z,994.08
2018-03-11T06:52:41.547Z,994.07
2018-03-11T06:53:42.917Z,994.10
2018-03-11T06:54:44.306Z,994.12
2018-03-11T06:55:45.702Z,994.11
2018-03-11T06:56:47.087Z,994.11
2018-03-11T06:57:48.474Z,994.14
2018-03-11T06:58:49.847Z,994.09
2018-03-11T06:59:51.249Z,994.09
2018-03-11T07:00:52.622Z,994.09
2018-03-11T07:01:54.018Z,994.10
2018-03-11T07:02:55.408Z,994.11
2018-03-11T07:03:56.800Z,994.07
2018-03-11T07:05:38.114Z,994.05
2018-03-11T07:06:39.502Z,994.04
2018-03-11T07:07:40.880Z,994.06
2018-03-11T07:08:42.283Z,994.13
2018-03-11T07:09:43.661Z,994.10
2018-03-11T07:10:45.033Z,994.14
2018-03-11T07:11:46.415Z,994.14
2018-03-11T07:12:47.805Z,994.13
2018-03-11T07:13:49.181Z,994.12
2018-03-11T07:14:50.573Z,994.12
2018-03-11T07:15:51.969Z,994.05
2018-03-11T07:16:53.367Z,994.05
2018-03-11T07:17:54.747Z,994.09
2018-03-11T07:18:56.141Z,994.08
2018-03-11T07:19:57.545Z,994.05
2018-03-11T07:20:58.943Z,994.09
2018-03-11T07:22:00.329Z,994.06
2018-03-11T07:23:01.715Z,994.17
2018-03-11T07:24:03.088Z,994.11
2018-03-11T07:25:04.474Z,994.10
2018-03-11T07:26:05.852Z,994.11
2018-03-11T07:27:07.234Z,994.12
2018-03-11T07:28:08.633Z,994.03
2018-03-11T07:29:10.024Z,994.02
2018-03-11T07:30:11.410Z,994.01
2018-03-11T07:31:12.795Z,994.03
2018-03-11T07:32:14.192Z,994.04
2018-03-11T07:33:15.574Z,994.09
2018-03-11T07:34:16.956Z,994.10
2018-03-11T07:35:18.338Z,994.15
2018-03-11T07:36:19.729Z,994.19
2018-03-11T07:37:21.127Z,994.09
2018-03-11T07:38:22.515Z,994.18
2018-03-11T07:39:23.888Z,994.13
2018-03-11T07:40:25.286Z,994.31
2018-03-11T07:41:26.705Z,994.18
2018-03-11T07:42:28.064Z,994.29
2018-03-11T07:43:29.451Z,994.23
2018-03-11T07:44:30.839Z,994.26
2018-03-11T07:45:32.242Z,994.19
2018-03-11T07:46:34.236Z,994.33
2018-03-11T07:47:35.628Z,994.28
2018-03-11T07:48:37.017Z,994.27
2018-03-11T07:49:38.410Z,994.33
2018-03-11T07:50:39.795Z,994.30
2018-03-11T07:51:41.190Z,994.21
2018-03-11T07:52:42.570Z,994.31
2018-03-11T07:53:43.963Z,994.33
2018-03-11T07:54:45.344Z,994.40
2018-03-11T07:55:46.738Z,994.33
2018-03-11T07:56:48.133Z,994.30
2018-03-11T07:57:49.517Z,994.39
2018-03-11T07:58:50.904Z,994.42
2018-03-11T07:59:52.296Z,994.53
2018-03-11T08:00:53.683Z,994.91
2018-03-11T08:01:55.076Z,994.42
2018-03-11T08:02:56.464Z,994.69
2018-03-11T08:03:57.850Z,994.39
2018-03-11T08:04:59.237Z,994.35
2018-03-11T08:06:00.639Z,994.35
2018-03-11T08:07:02.021Z,994.63
2018-03-11T08:08:03.416Z,994.70
2018-03-11T08:09:05.336Z,994.45
2018-03-11T08:10:06.717Z,994.64
2018-03-11T08:11:08.098Z,994.53
2018-03-11T08:12:09.495Z,994.45
2018-03-11T08:13:10.902Z,994.37
2018-03-11T08:14:12.292Z,994.35
2018-03-11T08:15:13.676Z,994.33
2018-03-11T08:16:15.066Z,994.37
2018-03-11T08:17:16.460Z,994.95
2018-03-11T08:18:17.853Z,994.43
2018-03-11T08:19:19.235Z,994.42
2018-03-11T08:20:20.631Z,994.35
2018-03-11T08:21:22.085Z,994.45
2018-03-11T08:22:23.386Z,994.54
2018-03-11T08:23:24.800Z,994.22
2018-03-11T08:24:26.195Z,994.63
2018-03-11T08:25:27.592Z,994.47
2018-03-11T08:26:28.984Z,994.50
2018-03-11T08:27:30.368Z,994.83
2018-03-11T08:28:31.757Z,995.10
2018-03-11T08:29:33.151Z,995.09
2018-03-11T08:30:34.543Z,994.39
2018-03-11T08:31:35.937Z,994.76
2018-03-11T08:32:37.325Z,994.51
2018-03-11T08:33:38.712Z,994.61
2018-03-11T08:34:40.108Z,994.60
2018-03-11T08:35:41.497Z,994.73
2018-03-11T08:36:42.896Z,995.01
2018-03-11T08:37:44.281Z,995.12
2018-03-11T08:38:45.683Z,994.82
2018-03-11T08:39:47.060Z,995.08
2018-03-11T08:40:48.458Z,994.53
2018-03-11T08:41:49.859Z,994.82
2018-03-11T08:42:51.295Z,995.52
2018-03-11T08:43:52.645Z,995.17
2018-03-11T08:44:54.035Z,995.81
2018-03-11T08:45:55.424Z,996.26
2018-03-11T08:46:56.814Z,995.70
2018-03-11T08:47:58.209Z,996.54
2018-03-11T08:48:59.598Z,996.56
2018-03-11T08:50:00.999Z,996.78
2018-03-11T08:51:02.404Z,997.02
2018-03-11T08:52:03.805Z,997.46
2018-03-11T08:53:05.202Z,996.50
2018-03-11T08:54:06.591Z,995.98
2018-03-11T08:55:07.990Z,997.39
2018-03-11T08:56:09.382Z,996.74
2018-03-11T08:57:10.787Z,995.96
2018-03-11T08:58:12.192Z,995.70
2018-03-11T08:59:13.584Z,996.08
2018-03-11T09:00:14.986Z,996.85
2018-03-11T09:01:16.396Z,996.77
2018-03-11T09:02:17.802Z,997.04
2018-03-11T09:03:19.191Z,997.41
2018-03-11T09:04:20.587Z,997.49
2018-03-11T09:05:21.982Z,997.74
2018-03-11T09:06:23.385Z,997.69
2018-03-11T09:07:24.784Z,997.42
2018-03-11T09:08:26.191Z,997.62
2018-03-11T09:09:27.583Z,997.37
2018-03-11T09:10:29.028Z,997.08
2018-03-11T09:11:30.343Z,997.14
2018-03-11T09:12:31.704Z,997.39
2018-03-11T09:13:33.094Z,997.20
2018-03-11T09:14:34.495Z,996.39
2018-03-11T09:15:35.905Z,997.13
2018-03-11T09:16:37.258Z,997.08
2018-03-11T09:17:38.659Z,996.33
2018-03-11T09:18:40.068Z,995.75
2018-03-11T09:19:41.460Z,995.51
2018-03-11T09:20:42.871Z,995.31
2018-03-11T09:21:44.271Z,995.29
2018-03-11T09:22:45.673Z,995.22
2018-03-11T09:23:47.034Z,995.11
2018-03-11T09:24:48.450Z,995.08
2018-03-11T09:25:49.852Z,995.04
2018-03-11T09:26:51.253Z,995.12
2018-03-11T09:27:52.658Z,995.04
2018-03-11T09:28:54.067Z,995.06
2018-03-11T09:29:55.478Z,994.94
2018-03-11T09:30:56.880Z,995.08
2018-03-11T09:31:58.292Z,995.06
2018-03-11T09:32:59.689Z,994.97
2018-03-11T09:34:01.093Z,995.05
2018-03-11T09:35:02.507Z,994.94
2018-03-11T09:36:03.907Z,994.94
2018-03-11T09:37:05.309Z,994.93
2018-03-11T09:38:06.721Z,994.85
2018-03-11T09:39:08.130Z,994.88
2018-03-11T09:40:09.530Z,994.85
2018-03-11T09:41:10.894Z,994.81
2018-03-11T09:42:12.295Z,994.82
2018-03-11T09:43:13.703Z,994.86
2018-03-11T09:44:15.116Z,994.83
2018-03-11T09:45:16.521Z,994.82
2018-03-11T09:46:17.935Z,994.85
2018-03-11T09:47:19.360Z,994.85
2018-03-11T09:48:20.746Z,994.80
2018-03-11T09:49:22.178Z,994.68
2018-03-11T09:50:23.594Z,994.61
2018-03-11T09:51:25.016Z,994.60
2018-03-11T09:52:26.437Z,994.73
2018-03-11T09:53:27.836Z,995.01
2018-03-11T09:54:29.241Z,995.12
2018-03-11T09:55:30.666Z,994.51
2018-03-11T09:56:32.072Z,994.31
2018-03-11T09:57:33.491Z,994.98
2018-03-11T09:58:34.898Z,994.84
2018-03-11T09:59:36.307Z,994.13
2018-03-11T10:00:37.713Z,994.31
2018-03-11T10:01:39.121Z,994.84
2018-03-11T10:02:40.530Z,994.30
2018-03-11T10:03:41.950Z,994.10
2018-03-11T10:04:43.361Z,994.55
2018-03-11T10:05:44.781Z,994.07
2018-03-11T10:06:46.187Z,994.66
2018-03-11T10:07:47.594Z,994.57
2018-03-11T10:08:48.998Z,994.75
2018-03-11T10:09:50.427Z,994.71
2018-03-11T10:10:51.834Z,994.45
2018-03-11T10:11:53.231Z,994.67
2018-03-11T10:12:54.658Z,994.64
2018-03-11T10:13:56.065Z,994.41
2018-03-11T10:14:57.481Z,994.19
2018-03-11T10:15:59.722Z,994.03
2018-03-11T10:17:01.131Z,994.27
2018-03-11T10:18:02.623Z,994.43
2018-03-11T10:19:03.941Z,994.59
2018-03-11T10:20:05.347Z,994.72
2018-03-11T10:21:06.752Z,994.25
2018-03-11T10:22:08.150Z,994.05
2018-03-11T10:23:09.516Z,994.44
2018-03-11T10:24:10.927Z,994.62
2018-03-11T10:25:12.329Z,994.47
2018-03-11T10:26:13.749Z,994.93
2018-03-11T10:27:15.149Z,994.49
2018-03-11T10:28:16.579Z,994.24
2018-03-11T10:29:17.987Z,994.27
2018-03-11T10:30:19.389Z,995.06
2018-03-11T10:31:20.795Z,994.28
2018-03-11T10:32:23.100Z,994.04
2018-03-11T10:33:24.506Z,994.29
2018-03-11T10:34:25.896Z,994.70
2018-03-11T10:35:27.958Z,994.42
2018-03-11T10:36:29.363Z,994.12
2018-03-11T10:37:30.774Z,994.64
2018-03-11T10:38:32.166Z,994.59
2018-03-11T10:39:33.574Z,994.56
2018-03-11T10:40:34.991Z,994.65
2018-03-11T10:41:36.404Z,994.08
2018-03-11T10:42:37.780Z,994.25
2018-03-11T10:43:39.168Z,994.22
2018-03-11T10:44:40.598Z,994.08
2018-03-11T10:45:41.998Z,994.29
2018-03-11T10:46:43.404Z,994.18
2018-03-11T10:47:44.801Z,993.93
2018-03-11T10:48:46.208Z,993.83
2018-03-11T10:49:47.624Z,994.22
2018-03-11T10:50:49.035Z,994.27
2018-03-11T10:51:50.385Z,994.10
2018-03-11T10:52:51.749Z,993.92
2018-03-11T10:53:53.146Z,993.74
2018-03-11T10:54:54.559Z,994.23
2018-03-11T10:55:55.922Z,993.97
2018-03-11T10:56:57.330Z,993.90
2018-03-11T10:57:58.733Z,993.95
2018-03-11T10:59:00.154Z,993.96
2018-03-11T11:00:01.567Z,993.92
2018-03-11T11:01:02.971Z,993.91
2018-03-11T11:02:04.383Z,993.93
2018-03-11T11:03:05.791Z,993.96
2018-03-11T11:04:07.198Z,993.94
2018-03-11T11:05:08.590Z,993.62
2018-03-11T11:06:10.004Z,994.04
2018-03-11T11:07:11.416Z,993.99
2018-03-11T11:08:12.822Z,993.69
2018-03-11T11:09:14.264Z,994.01
2018-03-11T11:10:15.632Z,993.77
2018-03-11T11:11:17.050Z,993.75
2018-03-11T11:12:18.458Z,994.16
2018-03-11T11:13:19.829Z,994.25
2018-03-11T11:14:21.235Z,994.29
2018-03-11T11:15:22.597Z,994.14
2018-03-11T11:16:23.996Z,993.73
2018-03-11T11:17:25.410Z,994.03
2018-03-11T11:18:26.818Z,994.02
2018-03-11T11:19:28.238Z,993.72
2018-03-11T11:20:29.630Z,993.72
2018-03-11T11:21:31.045Z,993.66
2018-03-11T11:22:32.467Z,993.58
2018-03-11T11:23:33.877Z,993.72
2018-03-11T11:24:35.299Z,993.71
2018-03-11T11:25:36.752Z,993.52
2018-03-11T11:26:38.121Z,993.54
2018-03-11T11:27:39.523Z,993.40
2018-03-11T11:28:40.929Z,993.44
2018-03-11T11:29:42.331Z,993.28
2018-03-11T11:30:43.737Z,993.41
2018-03-11T11:31:45.135Z,993.53
2018-03-11T11:32:46.534Z,993.38
2018-03-11T11:33:47.931Z,993.42
2018-03-11T11:34:49.348Z,993.34
2018-03-11T11:35:50.755Z,993.26
2018-03-11T11:36:52.176Z,993.19
2018-03-11T11:37:53.589Z,993.14
2018-03-11T11:38:54.991Z,993.22
2018-03-11T11:39:56.387Z,993.28
2018-03-11T11:40:57.800Z,993.12
2018-03-11T11:41:59.212Z,993.09
2018-03-11T11:43:00.601Z,992.98
2018-03-11T11:44:02.010Z,992.91
2018-03-11T11:45:03.417Z,992.89
2018-03-11T11:46:04.857Z,992.73
2018-03-11T11:47:06.220Z,992.65
2018-03-11T11:48:07.628Z,992.60
2018-03-11T11:49:09.041Z,992.56
2018-03-11T11:50:10.442Z,992.50
2018-03-11T11:51:11.853Z,992.40
2018-03-11T11:52:13.265Z,992.28
2018-03-11T11:53:14.660Z,992.36
2018-03-11T11:54:16.067Z,992.42
2018-03-11T11:55:17.469Z,992.40
2018-03-11T11:56:18.876Z,992.30
2018-03-11T11:57:20.280Z,992.43
2018-03-11T11:58:21.685Z,992.35
2018-03-11T11:59:23.079Z,992.24
2018-03-11T12:00:24.492Z,992.27
2018-03-11T12:01:25.894Z,992.31
2018-03-11T12:02:27.307Z,992.31
2018-03-11T12:03:28.706Z,992.15
2018-03-11T12:04:30.108Z,992.13
2018-03-11T12:05:31.514Z,992.12
2018-03-11T12:06:32.923Z,992.14
2018-03-11T12:07:34.326Z,992.27
2018-03-11T12:08:35.731Z,992.15
2018-03-11T12:09:37.150Z,992.07
2018-03-11T12:10:38.564Z,992.25
2018-03-11T12:11:39.969Z,992.16
2018-03-11T12:12:41.382Z,992.12
2018-03-11T12:13:42.793Z,992.16
2018-03-11T12:14:44.205Z,992.35
2018-03-11T12:15:45.603Z,992.29
2018-03-11T12:16:47.011Z,992.29
2018-03-11T12:17:48.410Z,992.19
2018-03-11T12:18:49.812Z,992.03
2018-03-11T12:19:51.218Z,992.20
2018-03-11T12:20:52.623Z,992.15
2018-03-11T12:21:54.021Z,992.15
2018-03-11T12:22:55.420Z,992.06
2018-03-11T12:23:56.824Z,991.86
2018-03-11T12:24:58.235Z,991.87
2018-03-11T12:25:59.645Z,991.88
2018-03-11T12:27:01.011Z,991.80
2018-03-11T12:28:02.369Z,991.85
2018-03-11T12:29:03.782Z,991.94
2018-03-11T12:30:05.188Z,991.84
2018-03-11T12:31:06.594Z,991.74
2018-03-11T12:32:08.003Z,991.79
2018-03-11T12:33:09.375Z,991.73
2018-03-11T12:34:10.780Z,991.63
2018-03-11T12:35:12.175Z,991.67
2018-03-11T12:36:13.592Z,991.65
2018-03-11T12:37:14.993Z,991.69
2018-03-11T12:38:16.394Z,991.64
2018-03-11T12:39:17.816Z,991.64
2018-03-11T12:40:19.208Z,991.61
2018-03-11T12:41:20.615Z,991.60
2018-03-11T12:42:22.013Z,991.69
2018-03-11T12:43:23.429Z,991.75
2018-03-11T12:44:24.877Z,991.66
2018-03-11T12:45:26.267Z,991.70
2018-03-11T12:46:27.693Z,991.65